Providence Village's Hourly Summary for Friday, July 6, 2018
Hour Temp
(f)
RH
(%)
Solar Rad.
(MJ/m2)
Rainfall
(in)
Wind
(mph)
7/6/2018 12:00 AM 82 68 0 0 1.58
7/6/2018 1:00 AM 80 71 0 0 1.48
7/6/2018 2:00 AM 79 78 0 0 0.97
7/6/2018 3:00 AM 78 83 0 0 0.66
7/6/2018 4:00 AM 77 86 0 0 2.7
7/6/2018 5:00 AM 76 86 0 0 0.79
7/6/2018 6:00 AM 75 90 0 0 2.1
7/6/2018 7:00 AM 75 91 0.04 0 3.05
7/6/2018 8:00 AM 77 78 0.46 0 3.77
7/6/2018 9:00 AM 81 67 0.99 0 3.69
7/6/2018 10:00 AM 86 58 0.71 0 4.11
7/6/2018 11:00 AM 89 51 2.21 0 5.19
7/6/2018 12:00 PM 91 47 3.07 0 6.34
7/6/2018 1:00 PM 92 42 2.89 0 7.43
7/6/2018 2:00 PM 94 39 2.86 0 7.32
7/6/2018 3:00 PM 94 38 2.34 0 5.95
7/6/2018 4:00 PM 93 36 1.72 0 10.73
7/6/2018 5:00 PM 83 62 1.4 0 8.12
7/6/2018 6:00 PM 89 49 2.22 0 8.88
7/6/2018 7:00 PM 87 50 1.05 0 8.75
7/6/2018 8:00 PM 84 57 0.08 0 5.13
7/6/2018 9:00 PM 79 66 0.01 0 5.14
7/6/2018 10:00 PM 77 73 0 0 3.91
7/6/2018 11:00 PM 76 76 0 0 2.39
Data Summary 83 64 22.05 0.00 4.59